Time;durP1;ratioP1;P1;durP2;ratioP2;P2;SDS_P1;SDS_P2;PMS_P1;PMS_P2;Temp;Humidity;BMP_temperature;BMP_pressure;BME280_temperature;BME280_humidity;BME280_pressure;Samples;Min_cycle;Max_cycle;Signal;HPM_P1;HPM_P2
2023/03/02 00:02:25;;;;;;;50.30;28.47;;;;;;;5.28;49.99;98915.16;6977495;28;20307;-80
2023/03/02 00:05:47;;;;;;;31.40;20.37;;;;;;;5.17;50.29;98911.00;6977341;28;20433;-80
2023/03/02 00:09:08;;;;;;;47.77;23.47;;;;;;;5.26;50.11;98915.31;6977484;28;20361;-80
2023/03/02 00:12:33;;;;;;;23.87;15.97;;;;;;;4.88;50.82;98920.53;6977703;28;20216;-79
2023/03/02 00:15:55;;;;;;;27.37;17.73;;;;;;;4.92;51.22;98906.69;6977087;28;20411;-78
2023/03/02 00:19:18;;;;;;;28.07;17.80;;;;;;;4.84;51.56;98912.00;6976695;28;20324;-80
2023/03/02 00:22:40;;;;;;;24.83;16.23;;;;;;;4.54;51.74;98915.31;6976912;28;20632;-80
2023/03/02 00:26:02;;;;;;;30.03;19.10;;;;;;;4.52;52.35;98908.47;6976626;28;20736;-80
2023/03/02 00:29:23;;;;;;;29.33;18.93;;;;;;;4.68;51.67;98904.00;6976270;28;20255;-80
2023/03/02 00:32:45;;;;;;;29.93;17.20;;;;;;;4.75;51.13;98898.81;6976607;28;20613;-80
2023/03/02 00:36:14;;;;;;;29.47;18.07;;;;;;;4.44;51.68;98898.66;6975743;28;20300;-79
2023/03/02 00:39:36;;;;;;;28.33;18.07;;;;;;;4.68;52.02;98900.50;6975491;28;20227;-79
2023/03/02 00:42:57;;;;;;;29.33;17.83;;;;;;;4.64;51.83;98885.78;6976501;28;20210;-79
2023/03/02 00:46:21;;;;;;;35.80;19.93;;;;;;;4.93;51.39;98904.84;6974782;28;20222;-79
2023/03/02 00:49:48;;;;;;;26.50;17.50;;;;;;;5.02;50.04;98902.00;6976147;28;20232;-80
2023/03/02 00:53:11;;;;;;;31.87;18.37;;;;;;;4.86;50.78;98888.66;6979979;28;20253;-80
2023/03/02 00:56:32;;;;;;;25.90;16.67;;;;;;;4.44;50.98;98887.97;6975671;28;20688;-80
2023/03/02 00:59:54;;;;;;;25.53;16.63;;;;;;;4.51;51.52;98899.66;6976361;28;20371;-79
2023/03/02 01:03:15;;;;;;;29.87;17.63;;;;;;;4.34;52.07;98889.94;6976405;28;20370;-79
2023/03/02 01:06:45;;;;;;;26.43;16.63;;;;;;;4.00;52.26;98872.31;6975204;28;20208;-79
2023/03/02 01:10:13;;;;;;;24.33;16.50;;;;;;;4.29;52.21;98880.75;6975453;28;20224;-80
2023/03/02 01:13:35;;;;;;;30.70;17.97;;;;;;;4.34;52.05;98892.63;6975757;28;20673;-79
2023/03/02 01:16:56;;;;;;;26.83;18.27;;;;;;;4.20;52.27;98879.06;6975162;28;20214;-79
2023/03/02 01:20:18;;;;;;;29.93;18.03;;;;;;;3.64;53.31;98818.41;6975127;28;20454;-79
2023/03/02 01:23:40;;;;;;;29.20;17.27;;;;;;;4.39;52.20;98876.94;6976555;28;20558;-79
2023/03/02 01:27:03;;;;;;;28.80;17.33;;;;;;;4.57;51.48;98879.44;6975246;28;20668;-79
2023/03/02 01:30:24;;;;;;;27.43;17.27;;;;;;;4.49;51.76;98882.13;6976531;28;20711;-79
2023/03/02 01:33:46;;;;;;;30.90;17.93;;;;;;;4.34;51.99;98875.75;6983846;28;20296;-80
2023/03/02 01:37:07;;;;;;;26.37;17.27;;;;;;;4.13;52.15;98851.38;6988508;28;20356;-80
2023/03/02 01:40:29;;;;;;;26.97;17.23;;;;;;;3.78;51.83;98799.09;6988884;28;20752;-80
2023/03/02 01:43:52;;;;;;;27.40;16.87;;;;;;;3.51;53.60;98855.34;6988788;28;20316;-80
2023/03/02 01:47:17;;;;;;;32.67;19.27;;;;;;;3.68;54.38;98864.22;6986206;28;20283;-79
2023/03/02 01:50:39;;;;;;;34.47;19.93;;;;;;;3.82;54.03;98864.44;6986602;28;20306;-79
2023/03/02 01:54:02;;;;;;;31.83;20.23;;;;;;;4.06;53.68;98853.84;6982190;28;20508;-80
2023/03/02 01:57:27;;;;;;;24.00;16.63;;;;;;;4.19;52.64;98826.72;6971661;28;20290;-80
2023/03/02 02:00:51;;;;;;;31.10;19.20;;;;;;;4.16;52.07;98841.22;6971513;28;20305;-80
2023/03/02 02:04:13;;;;;;;28.57;18.93;;;;;;;3.59;53.29;98847.38;6972034;28;20302;-81
2023/03/02 02:07:35;;;;;;;33.50;19.07;;;;;;;3.50;53.78;98843.00;6971130;28;20293;-80
2023/03/02 02:10:56;;;;;;;27.57;17.60;;;;;;;3.72;53.38;98789.09;6971518;28;20218;-80
2023/03/02 02:14:18;;;;;;;27.77;15.67;;;;;;;4.14;52.28;98839.72;6971221;28;20256;-80
2023/03/02 02:17:42;;;;;;;27.50;17.70;;;;;;;4.23;51.79;98833.38;6970859;28;20294;-80
2023/03/02 02:21:04;;;;;;;33.17;18.87;;;;;;;3.65;52.58;98803.25;6970538;28;20590;-80
2023/03/02 02:24:32;;;;;;;28.70;16.73;;;;;;;4.17;52.21;98818.88;6971726;28;20187;-80
2023/03/02 02:27:55;;;;;;;31.70;17.80;;;;;;;4.27;51.54;98824.03;6970972;28;20629;-79
2023/03/02 02:31:21;;;;;;;30.37;17.43;;;;;;;4.01;51.84;98818.00;6970956;28;20744;-79
2023/03/02 02:34:47;;;;;;;26.60;17.13;;;;;;;3.96;52.37;98815.00;6970811;28;20198;-79
2023/03/02 02:38:10;;;;;;;28.83;17.50;;;;;;;4.10;51.91;98825.00;6971166;28;20591;-80
2023/03/02 02:41:34;;;;;;;29.00;17.93;;;;;;;3.92;51.65;98794.97;6972813;28;20211;-80
2023/03/02 02:44:58;;;;;;;29.17;18.50;;;;;;;3.17;53.40;98817.19;6971412;28;20264;-80
2023/03/02 02:48:21;;;;;;;29.70;18.13;;;;;;;3.19;54.09;98825.84;6970318;28;20226;-80
2023/03/02 02:51:43;;;;;;;30.17;17.33;;;;;;;3.42;54.43;98828.81;6971347;28;20212;-79
2023/03/02 02:55:05;;;;;;;30.50;17.67;;;;;;;3.52;53.88;98833.00;6973750;28;20248;-79
2023/03/02 02:58:31;;;;;;;32.37;18.40;;;;;;;3.74;53.61;98819.09;6998576;28;20770;-80
2023/03/02 03:01:54;;;;;;;28.10;17.27;;;;;;;3.38;53.09;98795.47;7004301;28;20198;-80
2023/03/02 03:05:19;;;;;;;29.80;17.30;;;;;;;3.90;53.38;98807.66;7008116;28;20258;-80
2023/03/02 03:08:57;;;;;;;25.80;16.67;;;;;;;4.06;51.99;98799.66;7010863;28;20308;-80
2023/03/02 03:12:23;;;;;;;30.87;17.53;;;;;;;3.88;51.87;98805.13;7007986;28;20717;-79
2023/03/02 03:15:45;;;;;;;28.63;17.40;;;;;;;3.73;52.76;98804.09;7005577;28;20662;-79
2023/03/02 03:19:12;;;;;;;28.53;17.70;;;;;;;3.35;53.34;98801.09;7007719;28;20233;-79
2023/03/02 03:22:34;;;;;;;28.27;17.77;;;;;;;3.37;54.28;98809.81;7009682;28;20186;-80
2023/03/02 03:25:56;;;;;;;32.93;19.27;;;;;;;3.25;55.01;98809.22;7008810;28;20309;-80
2023/03/02 03:29:18;;;;;;;26.93;16.27;;;;;;;3.55;53.52;98794.53;7009459;28;20751;-79
2023/03/02 03:32:43;;;;;;;32.10;18.17;;;;;;;3.29;54.14;98802.59;7003457;28;20209;-80
2023/03/02 03:36:07;;;;;;;24.67;16.57;;;;;;;3.67;53.03;98796.72;7008505;28;20213;-80
2023/03/02 03:39:31;;;;;;;28.70;17.00;;;;;;;3.62;53.33;98790.22;7008455;28;20733;-79
2023/03/02 03:42:53;;;;;;;28.40;16.10;;;;;;;3.41;52.99;98805.78;7009589;28;20272;-80
2023/03/02 03:46:14;;;;;;;27.67;18.03;;;;;;;3.55;52.52;98797.22;7007728;28;20271;-79
2023/03/02 03:49:36;;;;;;;28.63;17.90;;;;;;;3.20;53.37;98811.53;7009100;28;20223;-80
2023/03/02 03:52:59;;;;;;;27.40;17.33;;;;;;;3.38;54.10;98803.47;7008959;28;20211;-80
2023/03/02 03:56:23;;;;;;;28.37;18.90;;;;;;;3.53;53.38;98797.38;7005881;28;20831;-80
2023/03/02 03:59:44;;;;;;;33.20;18.60;;;;;;;3.60;52.87;98811.72;6980367;28;20918;-80
2023/03/02 04:03:06;;;;;;;33.70;18.70;;;;;;;3.63;52.80;98799.88;6980818;28;20268;-80
2023/03/02 04:06:29;;;;;;;30.27;19.17;;;;;;;3.51;52.71;98794.03;6979887;28;20265;-80
2023/03/02 04:10:02;;;;;;;30.67;18.40;;;;;;;2.87;53.97;98807.03;6980724;28;20276;-80
2023/03/02 04:13:23;;;;;;;29.60;18.87;;;;;;;2.87;53.51;98763.59;6976724;28;20585;-80
2023/03/02 04:16:45;;;;;;;30.10;19.07;;;;;;;3.30;53.88;98822.09;6975322;28;20259;-80
2023/03/02 04:20:08;;;;;;;32.03;18.13;;;;;;;3.26;54.43;98824.22;6974470;28;20287;-80
2023/03/02 04:23:29;;;;;;;34.30;21.90;;;;;;;3.35;53.90;98815.28;6975569;28;20218;-80
2023/03/02 04:26:52;;;;;;;30.83;17.87;;;;;;;3.51;53.16;98835.84;6974699;28;20209;-80
2023/03/02 04:30:14;;;;;;;31.13;18.57;;;;;;;3.26;52.91;98832.19;6975597;28;20234;-80
2023/03/02 04:33:37;;;;;;;29.93;18.03;;;;;;;2.77;53.43;98826.78;6975258;28;20657;-80
2023/03/02 04:36:59;;;;;;;32.43;19.27;;;;;;;2.97;54.28;98833.53;6974645;28;20222;-80
2023/03/02 04:40:21;;;;;;;32.73;19.73;;;;;;;3.04;53.64;98811.47;6976016;28;20708;-79
2023/03/02 04:43:43;;;;;;;29.67;17.90;;;;;;;3.11;53.23;98814.31;6975279;28;20255;-80
2023/03/02 04:47:05;;;;;;;27.27;18.47;;;;;;;3.35;53.19;98825.09;6974091;28;20219;-80
2023/03/02 04:50:27;;;;;;;29.17;18.17;;;;;;;3.32;53.01;98826.25;6975142;28;20228;-80
2023/03/02 04:53:51;;;;;;;29.50;18.93;;;;;;;3.40;53.07;98828.97;6974461;28;20251;-79
2023/03/02 04:57:12;;;;;;;27.27;17.73;;;;;;;3.27;52.20;98835.72;6976957;28;20349;-80
2023/03/02 05:00:35;;;;;;;33.03;19.40;;;;;;;2.72;55.02;98837.03;6974467;28;20234;-79
2023/03/02 05:03:57;;;;;;;29.53;19.40;;;;;;;2.95;54.96;98806.25;6973965;28;20352;-80
2023/03/02 05:07:18;;;;;;;35.37;18.07;;;;;;;3.19;53.62;98825.03;6972859;28;20268;-79
2023/03/02 05:10:40;;;;;;;33.47;19.07;;;;;;;3.14;53.66;98822.00;6973391;28;20368;-80
2023/03/02 05:14:03;;;;;;;30.70;19.13;;;;;;;3.10;53.91;98821.47;6973456;28;20693;-80
2023/03/02 05:17:26;;;;;;;29.73;18.70;;;;;;;3.33;52.81;98813.78;6973707;28;20623;-80
2023/03/02 05:20:49;;;;;;;27.37;17.50;;;;;;;3.21;53.00;98825.69;6972897;28;20231;-79
2023/03/02 05:24:11;;;;;;;32.63;18.63;;;;;;;3.15;53.74;98821.00;6973410;28;20692;-80
2023/03/02 05:27:32;;;;;;;33.47;19.93;;;;;;;3.17;53.87;98819.00;6972970;28;20260;-80
2023/03/02 05:30:54;;;;;;;29.70;19.53;;;;;;;3.27;53.81;98806.41;6973153;28;20373;-80
2023/03/02 05:34:17;;;;;;;34.87;19.40;;;;;;;2.56;54.51;98789.88;6972916;28;20211;-80
2023/03/02 05:37:43;;;;;;;34.83;20.13;;;;;;;2.68;55.15;98777.97;6972361;28;20729;-80
2023/03/02 05:41:05;;;;;;;32.20;19.93;;;;;;;3.15;54.81;98810.34;6973454;28;20301;-80
2023/03/02 05:44:26;;;;;;;34.10;18.80;;;;;;;3.30;54.50;98806.94;6973860;28;20236;-79
2023/03/02 05:47:48;;;;;;;35.03;21.17;;;;;;;3.47;53.76;98823.81;6979965;28;20220;-79
2023/03/02 05:51:11;;;;;;;32.53;18.60;;;;;;;2.83;52.63;98760.41;6995767;28;20236;-79
2023/03/02 05:54:32;;;;;;;36.67;21.70;;;;;;;3.23;54.47;98824.53;6975800;28;20206;-81
2023/03/02 05:57:54;;;;;;;36.40;20.50;;;;;;;2.96;54.52;98826.56;6972954;28;20638;-79
2023/03/02 06:01:15;;;;;;;33.73;19.43;;;;;;;2.86;55.04;98813.34;6976951;28;20263;-79
2023/03/02 06:04:42;;;;;;;36.90;21.17;;;;;;;2.96;54.98;98832.69;6990797;28;20345;-79
2023/03/02 06:08:05;;;;;;;31.63;19.90;;;;;;;3.21;54.83;98823.03;6978416;28;20339;-81
2023/03/02 06:11:29;;;;;;;35.73;20.13;;;;;;;3.17;54.57;98827.00;6991316;28;20219;-80
2023/03/02 06:14:50;;;;;;;32.80;20.73;;;;;;;3.61;53.96;98833.88;6996988;28;20233;-79
2023/03/02 06:18:16;;;;;;;38.03;24.00;;;;;;;3.31;54.23;98839.75;6988685;28;20322;-80
2023/03/02 06:21:38;;;;;;;35.03;20.50;;;;;;;3.41;53.81;98846.63;6981530;28;20211;-80
2023/03/02 06:25:01;;;;;;;34.20;22.10;;;;;;;3.49;54.20;98851.97;6981796;28;20265;-81
2023/03/02 06:28:23;;;;;;;32.03;20.23;;;;;;;3.55;55.21;98855.84;6981369;28;20314;-79
2023/03/02 06:31:44;;;;;;;32.83;19.50;;;;;;;3.88;54.47;98847.81;7007933;28;20209;-80
2023/03/02 06:35:07;;;;;;;34.43;18.97;;;;;;;4.13;53.20;98859.38;7009273;28;20234;-79
2023/03/02 06:38:28;;;;;;;31.30;18.33;;;;;;;4.03;53.43;98856.88;7000888;28;20643;-79
2023/03/02 06:41:51;;;;;;;31.93;18.97;;;;;;;3.77;53.27;98857.94;7000166;28;20720;-79
2023/03/02 06:45:13;;;;;;;40.37;22.07;;;;;;;3.52;55.09;98849.00;6999756;28;20272;-78
2023/03/02 06:48:35;;;;;;;50.10;27.20;;;;;;;3.75;54.72;98849.25;6999106;28;20740;-80
2023/03/02 06:51:57;;;;;;;82.60;39.57;;;;;;;3.65;55.48;98862.72;7000012;28;20206;-80
2023/03/02 06:55:19;;;;;;;36.63;22.80;;;;;;;3.69;54.50;98848.09;6999639;28;20359;-79
2023/03/02 06:58:41;;;;;;;38.47;22.77;;;;;;;4.35;54.11;98856.06;6998535;28;20322;-80
2023/03/02 07:02:03;;;;;;;38.83;21.90;;;;;;;4.44;53.26;98868.44;6972389;28;20289;-82
2023/03/02 07:05:24;;;;;;;38.47;24.00;;;;;;;4.48;53.45;98859.09;6972400;28;20289;-80
2023/03/02 07:08:46;;;;;;;36.07;22.27;;;;;;;4.64;53.25;98873.28;6970571;28;20224;-79
2023/03/02 07:12:08;;;;;;;37.50;23.43;;;;;;;4.16;53.60;98883.91;6970299;28;20213;-79
2023/03/02 07:15:33;;;;;;;41.53;24.57;;;;;;;4.41;54.47;98879.44;6970151;28;20208;-79
2023/03/02 07:18:55;;;;;;;38.77;23.83;;;;;;;4.72;53.51;98873.28;6968914;28;20643;-79
2023/03/02 07:22:16;;;;;;;45.20;27.27;;;;;;;4.98;52.96;98862.44;6976590;28;20305;-79
2023/03/02 07:25:38;;;;;;;38.80;23.70;;;;;;;5.11;53.09;98873.44;6973934;28;20691;-79
2023/03/02 07:29:02;;;;;;;32.57;21.10;;;;;;;5.41;52.17;98872.69;6977250;28;20287;-79
2023/03/02 07:32:25;;;;;;;37.07;22.93;;;;;;;5.09;52.85;98870.94;7002947;28;20277;-79
2023/03/02 07:35:46;;;;;;;39.07;24.30;;;;;;;5.32;52.82;98860.38;7000940;28;20690;-80
2023/03/02 07:39:08;;;;;;;36.77;23.27;;;;;;;5.50;52.79;98885.91;6995848;28;20229;-79
2023/03/02 07:42:29;;;;;;;38.83;22.53;;;;;;;5.64;52.31;98877.16;6989832;28;20281;-79
2023/03/02 07:45:51;;;;;;;37.13;22.73;;;;;;;5.84;52.33;98873.09;6996820;28;20291;-80
2023/03/02 07:49:14;;;;;;;38.83;22.60;;;;;;;5.98;52.66;98872.38;7007752;28;20430;-79
2023/03/02 07:52:35;;;;;;;40.83;25.10;;;;;;;5.92;52.72;98850.81;6998202;28;20227;-78
2023/03/02 07:55:57;;;;;;;40.87;25.07;;;;;;;6.19;51.51;98851.16;6991508;28;20325;-79
2023/03/02 07:59:18;;;;;;;38.80;25.23;;;;;;;6.46;50.73;98850.66;6996316;28;20253;-80
2023/03/02 08:02:42;;;;;;;48.33;25.00;;;;;;;7.02;49.38;98873.50;7014878;28;21037;-79
2023/03/02 08:06:07;;;;;;;40.83;24.97;;;;;;;7.26;48.94;98882.13;6985775;28;20209;-79
2023/03/02 08:09:33;;;;;;;38.47;24.40;;;;;;;7.73;48.49;98871.91;6978101;28;20726;-79
2023/03/02 08:12:55;;;;;;;37.70;23.57;;;;;;;7.68;48.55;98882.38;6975023;28;20211;-80
2023/03/02 08:16:16;;;;;;;32.80;21.77;;;;;;;8.22;47.99;98881.06;6991348;28;20731;-80
2023/03/02 08:19:38;;;;;;;34.53;23.17;;;;;;;8.66;46.49;98883.63;6997916;28;20267;-79
2023/03/02 08:23:00;;;;;;;38.33;22.13;;;;;;;9.01;45.92;98875.47;6999080;28;20206;-78
2023/03/02 08:26:22;;;;;;;36.70;22.73;;;;;;;9.57;45.16;98866.41;6984773;28;20259;-81
2023/03/02 08:29:43;;;;;;;34.27;21.33;;;;;;;8.70;45.85;98837.34;6977142;28;20753;-79
2023/03/02 08:33:05;;;;;;;33.83;22.07;;;;;;;9.21;45.57;98861.16;6997926;28;20198;-79
2023/03/02 08:36:26;;;;;;;33.23;21.77;;;;;;;9.47;44.45;98817.47;6976687;28;20279;-79
2023/03/02 08:39:50;;;;;;;33.73;21.90;;;;;;;10.12;43.17;98856.38;6971014;28;20287;-79
2023/03/02 08:43:12;;;;;;;32.27;20.03;;;;;;;10.10;43.79;98854.94;6973675;28;20661;-80
2023/03/02 08:46:33;;;;;;;35.03;20.33;;;;;;;10.32;43.59;98845.66;6992437;28;20217;-80
2023/03/02 08:49:56;;;;;;;29.90;18.87;;;;;;;10.78;42.15;98843.91;6970725;28;20226;-80
2023/03/02 08:53:17;;;;;;;32.13;20.60;;;;;;;10.97;41.90;98849.34;6971834;28;20716;-80
2023/03/02 08:56:43;;;;;;;33.60;20.37;;;;;;;11.42;41.27;98831.47;6971228;28;20263;-80
2023/03/02 09:00:08;;;;;;;26.27;18.87;;;;;;;10.91;41.33;98803.47;6970862;28;20262;-81
2023/03/02 09:03:29;;;;;;;30.03;19.40;;;;;;;10.85;42.18;98828.56;6972631;28;20205;-80
2023/03/02 09:06:51;;;;;;;30.83;19.40;;;;;;;11.45;41.06;98826.47;6995716;28;20297;-80
2023/03/02 09:10:12;;;;;;;27.47;18.33;;;;;;;11.68;40.15;98834.16;6999966;28;20761;-80
2023/03/02 09:13:35;;;;;;;29.13;17.73;;;;;;;11.89;39.03;98801.47;7000631;28;20342;-80
2023/03/02 09:16:56;;;;;;;26.57;18.33;;;;;;;11.66;40.39;98822.72;6999661;28;20351;-80
2023/03/02 09:20:18;;;;;;;28.30;17.60;;;;;;;12.34;40.03;98824.78;6998582;28;20230;-80
2023/03/02 09:23:39;;;;;;;27.30;17.23;;;;;;;12.42;38.43;98816.41;7000021;28;20246;-80
2023/03/02 09:27:01;;;;;;;29.03;18.77;;;;;;;12.66;38.57;98816.47;7001717;28;20725;-80
2023/03/02 09:30:24;;;;;;;29.10;17.60;;;;;;;13.16;37.45;98817.38;6999521;28;20231;-80
2023/03/02 09:33:45;;;;;;;26.33;17.60;;;;;;;13.29;37.39;98814.56;7000046;28;20290;-81
2023/03/02 09:37:07;;;;;;;23.20;17.57;;;;;;;12.07;39.15;98818.66;6975328;28;20245;-79
2023/03/02 09:40:29;;;;;;;25.37;17.90;;;;;;;11.86;39.37;98824.34;6970061;28;20230;-79
2023/03/02 09:43:55;;;;;;;27.50;18.67;;;;;;;12.29;39.55;98828.13;6969933;28;20211;-79
2023/03/02 09:47:22;;;;;;;25.53;17.43;;;;;;;11.71;39.94;98812.97;6994710;28;20215;-79
2023/03/02 09:50:52;;;;;;;23.10;15.70;;;;;;;11.90;40.03;98813.94;6997257;28;20711;-81
2023/03/02 09:54:15;;;;;;;21.90;15.63;;;;;;;12.57;39.04;98825.88;6972159;28;20604;-79
2023/03/02 09:57:38;;;;;;;24.53;16.60;;;;;;;11.35;41.19;98828.78;6968503;28;20206;-79
2023/03/02 10:01:01;;;;;;;23.23;16.53;;;;;;;12.11;39.22;98808.25;6969549;28;20237;-79
2023/03/02 10:04:26;;;;;;;24.23;17.33;;;;;;;11.21;41.85;98823.63;6969582;28;20257;-79
2023/03/02 10:07:48;;;;;;;21.57;16.20;;;;;;;11.61;40.50;98817.13;6970526;28;20674;-81
2023/03/02 10:11:15;;;;;;;21.30;16.10;;;;;;;11.81;40.76;98834.13;6967978;28;20239;-79
2023/03/02 10:14:39;;;;;;;24.50;15.77;;;;;;;12.14;39.88;98830.25;6969145;28;20196;-79
2023/03/02 10:18:04;;;;;;;27.50;17.67;;;;;;;12.03;40.17;98835.53;6967038;28;20276;-79
2023/03/02 10:21:31;;;;;;;23.53;14.90;;;;;;;11.86;40.57;98815.41;6968683;28;20230;-79
2023/03/02 10:24:58;;;;;;;21.90;14.83;;;;;;;13.76;37.31;98822.81;6970162;28;20224;-80
2023/03/02 10:28:21;;;;;;;17.90;14.07;;;;;;;13.76;37.07;98819.28;6971948;28;20613;-80
2023/03/02 10:31:44;;;;;;;19.60;13.90;;;;;;;13.82;37.31;98767.75;6970692;28;20202;-80
2023/03/02 10:35:13;;;;;;;20.27;14.73;;;;;;;13.41;37.63;98820.91;6971060;28;20573;-80
2023/03/02 10:38:36;;;;;;;19.23;13.70;;;;;;;14.26;36.72;98818.94;6970755;28;20255;-80
2023/03/02 10:42:00;;;;;;;18.10;13.27;;;;;;;14.73;35.08;98811.81;6972038;28;20226;-80
2023/03/02 10:45:25;;;;;;;17.77;12.83;;;;;;;13.18;37.90;98821.53;6970088;28;20268;-79
2023/03/02 10:48:49;;;;;;;17.37;12.47;;;;;;;14.13;36.34;98782.97;6968499;28;20696;-80
2023/03/02 10:52:13;;;;;;;18.30;12.87;;;;;;;13.93;37.05;98791.34;6969197;28;20211;-80
2023/03/02 10:55:36;;;;;;;19.73;13.57;;;;;;;14.59;36.76;98807.63;6968563;28;20199;-79
2023/03/02 10:59:01;;;;;;;17.43;12.27;;;;;;;15.14;35.40;98785.47;6967691;28;20276;-80
2023/03/02 11:02:26;;;;;;;16.50;12.60;;;;;;;15.51;35.08;98786.13;6976033;28;20227;-80
2023/03/02 11:05:48;;;;;;;20.97;14.13;;;;;;;14.06;36.02;98799.34;6983117;28;20822;-80
2023/03/02 11:09:14;;;;;;;16.37;12.50;;;;;;;14.98;35.33;98791.56;6996550;28;20326;-80
2023/03/02 11:12:37;;;;;;;19.80;13.20;;;;;;;14.96;35.09;98757.56;6996933;28;20291;-81
2023/03/02 11:15:59;;;;;;;17.73;13.50;;;;;;;14.74;35.33;98767.34;6996980;28;20293;-81
2023/03/02 11:19:25;;;;;;;17.77;13.73;;;;;;;14.50;36.18;98750.16;6985078;28;20262;-80
2023/03/02 11:22:52;;;;;;;19.47;13.77;;;;;;;13.97;36.89;98786.31;6974646;28;20209;-82
2023/03/02 11:26:18;;;;;;;20.23;12.73;;;;;;;15.24;35.92;98774.84;6975691;28;20537;-79
2023/03/02 11:29:43;;;;;;;17.30;13.30;;;;;;;15.46;35.17;98754.19;6975504;28;20696;-82
2023/03/02 11:33:09;;;;;;;15.93;13.00;;;;;;;15.53;34.66;98762.25;6991543;28;20204;-81
2023/03/02 11:36:37;;;;;;;20.93;14.10;;;;;;;14.83;35.02;98749.66;7004022;28;20278;-81
2023/03/02 11:40:09;;;;;;;19.53;13.70;;;;;;;15.35;34.53;98784.09;7004983;28;20278;-81
2023/03/02 11:43:30;;;;;;;19.20;14.33;;;;;;;14.87;34.71;98786.13;7004716;28;20208;-79
2023/03/02 11:46:57;;;;;;;17.83;13.23;;;;;;;14.67;35.60;98774.72;7003305;28;20220;-81
2023/03/02 11:50:19;;;;;;;19.87;13.70;;;;;;;15.47;34.39;98774.06;7001812;28;20222;-82
2023/03/02 11:53:44;;;;;;;21.03;13.90;;;;;;;14.12;36.15;98781.34;6988597;28;20232;-80
2023/03/02 11:57:09;;;;;;;18.33;13.60;;;;;;;14.30;36.49;98763.19;6992255;28;20203;-81
2023/03/02 12:00:32;;;;;;;16.00;13.30;;;;;;;15.70;34.22;98774.84;6992893;28;20365;-81
2023/03/02 12:04:07;;;;;;;21.43;14.53;;;;;;;16.32;33.43;98775.88;7001677;28;20246;-81
2023/03/02 12:07:28;;;;;;;18.90;14.97;;;;;;;15.11;34.42;98777.78;7002052;28;20236;-82
2023/03/02 12:10:59;;;;;;;21.43;15.23;;;;;;;15.20;35.55;98760.09;7002432;28;20232;-81
2023/03/02 12:14:29;;;;;;;20.40;14.83;;;;;;;15.30;35.12;98756.78;7003269;28;20194;-80
2023/03/02 12:17:50;;;;;;;18.83;13.77;;;;;;;16.31;32.91;98760.63;7004193;28;20379;-80
2023/03/02 12:21:16;;;;;;;21.40;15.07;;;;;;;16.79;32.46;98737.34;7002001;28;20391;-80
2023/03/02 12:24:39;;;;;;;17.83;14.03;;;;;;;17.15;32.02;98746.94;6999140;28;20291;-80
2023/03/02 12:28:02;;;;;;;19.43;14.20;;;;;;;16.42;33.07;98749.75;6975319;28;20632;-80
2023/03/02 12:31:24;;;;;;;19.33;14.77;;;;;;;16.15;33.66;98753.25;6975034;28;20642;-81
2023/03/02 12:34:52;;;;;;;17.97;14.30;;;;;;;16.66;33.16;98743.13;6974373;28;20835;-80
2023/03/02 12:38:28;;;;;;;19.63;14.07;;;;;;;16.30;33.86;98734.50;6973925;28;20243;-79
2023/03/02 12:42:18;;;;;;;19.13;14.27;;;;;;;15.45;34.66;98711.78;6975287;28;20840;-81
2023/03/02 12:45:51;;;;;;;18.70;14.00;;;;;;;14.89;35.27;98740.56;6961642;28;20659;-80
2023/03/02 12:49:29;;;;;;;20.10;16.00;;;;;;;15.24;36.09;98738.72;6975285;28;20228;-81
2023/03/02 12:52:58;;;;;;;21.13;15.33;;;;;;;15.69;34.80;98727.00;6974595;28;20234;-81
2023/03/02 12:56:25;;;;;;;20.03;14.17;;;;;;;15.78;34.71;98728.28;6973393;28;20195;-81
2023/03/02 12:59:52;;;;;;;18.87;14.27;;;;;;;15.41;34.46;98698.94;6974045;28;20291;-81
2023/03/02 13:03:14;;;;;;;20.63;15.23;;;;;;;15.50;35.19;98736.38;6974259;28;20209;-82
2023/03/02 13:06:37;;;;;;;23.03;15.87;;;;;;;15.78;34.45;98733.72;6972255;28;20358;-81
2023/03/02 13:09:59;;;;;;;19.93;14.07;;;;;;;15.59;34.72;98728.69;6979787;28;20286;-82
2023/03/02 13:13:24;;;;;;;19.47;13.87;;;;;;;15.60;34.84;98725.72;6979685;28;20239;-80
2023/03/02 13:16:54;;;;;;;20.17;15.37;;;;;;;15.14;35.53;98733.88;6995915;28;20526;-81
2023/03/02 13:20:16;;;;;;;24.60;15.67;;;;;;;15.10;35.43;98724.53;7001039;28;20771;-80
2023/03/02 13:23:45;;;;;;;19.83;14.83;;;;;;;15.98;34.70;98730.59;6982432;28;20355;-81
2023/03/02 13:27:07;;;;;;;20.30;13.50;;;;;;;15.31;35.18;98726.66;6990823;28;20320;-80
2023/03/02 13:30:32;;;;;;;20.90;14.10;;;;;;;16.20;34.94;98718.81;6994357;28;20275;-81
2023/03/02 13:33:54;;;;;;;20.70;14.53;;;;;;;16.10;33.91;98715.88;7005711;28;20262;-80
2023/03/02 13:37:22;;;;;;;20.20;13.70;;;;;;;15.90;34.43;98718.22;6989182;28;20268;-81
2023/03/02 13:40:47;;;;;;;17.63;12.50;;;;;;;16.74;33.21;98707.31;6991049;28;20607;-81
2023/03/02 13:44:18;;;;;;;15.97;13.43;;;;;;;15.76;34.71;98716.00;6989179;28;20225;-81
2023/03/02 13:47:43;;;;;;;21.23;14.07;;;;;;;15.63;35.11;98716.28;6986930;28;20210;-81
2023/03/02 13:51:15;;;;;;;21.37;13.77;;;;;;;16.08;35.03;98712.59;6992515;28;20203;-81
2023/03/02 13:54:37;;;;;;;20.73;13.80;;;;;;;16.05;34.29;98685.06;6980385;28;20288;-81
2023/03/02 13:57:59;;;;;;;17.83;13.20;;;;;;;16.67;33.62;98705.81;6979813;28;20255;-81
2023/03/02 14:01:21;;;;;;;17.83;13.93;;;;;;;16.74;33.21;98701.06;6990217;28;20296;-81
2023/03/02 14:04:44;;;;;;;18.13;13.87;;;;;;;16.74;33.64;98706.50;7001227;28;20310;-81
2023/03/02 14:08:06;;;;;;;29.90;14.43;;;;;;;16.87;33.17;98698.00;7000713;28;20310;-80
2023/03/02 14:11:34;;;;;;;19.07;12.97;;;;;;;16.19;34.18;98698.13;7000793;28;20210;-81
2023/03/02 14:14:57;;;;;;;16.97;12.43;;;;;;;16.75;33.30;98691.81;7001046;28;20202;-80
2023/03/02 14:18:28;;;;;;;20.40;13.57;;;;;;;17.22;32.67;98698.56;6998131;28;20788;-80
2023/03/02 14:21:51;;;;;;;21.63;12.73;;;;;;;16.98;33.21;98680.75;7000033;28;20840;-81
2023/03/02 14:25:12;;;;;;;17.37;12.90;;;;;;;16.72;33.92;98701.28;7000352;28;20287;-80
2023/03/02 14:28:35;;;;;;;17.60;13.00;;;;;;;16.54;34.04;98689.78;6999449;28;20260;-81
2023/03/02 14:31:58;;;;;;;19.73;13.63;;;;;;;16.57;33.96;98692.84;6999906;28;20205;-81
2023/03/02 14:35:20;;;;;;;19.80;14.77;;;;;;;16.84;33.36;98693.03;7000082;28;20288;-80
2023/03/02 14:38:43;;;;;;;20.07;14.10;;;;;;;16.22;34.17;98696.81;6999411;28;20322;-81
2023/03/02 14:42:06;;;;;;;18.50;13.80;;;;;;;16.11;35.11;98692.25;6999964;28;20639;-80
2023/03/02 14:45:27;;;;;;;19.67;13.63;;;;;;;16.45;34.09;98688.56;6999746;28;20217;-80
2023/03/02 14:48:49;;;;;;;20.07;14.30;;;;;;;15.98;34.50;98649.84;6999821;28;20271;-80
2023/03/02 14:52:14;;;;;;;18.97;14.20;;;;;;;16.46;34.27;98688.28;7000706;28;20346;-80
2023/03/02 14:55:37;;;;;;;18.43;13.23;;;;;;;16.37;34.36;98678.03;7000553;28;20283;-81
2023/03/02 14:59:00;;;;;;;20.07;13.53;;;;;;;16.30;34.17;98683.63;6974899;28;20251;-80
2023/03/02 15:02:22;;;;;;;22.37;13.33;;;;;;;16.41;34.30;98663.75;6983294;28;20320;-81
2023/03/02 15:05:44;;;;;;;20.87;15.43;;;;;;;16.15;34.73;98693.41;6981934;28;20249;-80
2023/03/02 15:09:05;;;;;;;21.47;14.53;;;;;;;16.09;34.62;98692.47;6999405;28;20641;-80
2023/03/02 15:12:28;;;;;;;19.87;13.67;;;;;;;16.41;34.69;98692.84;6999339;28;20235;-80
2023/03/02 15:15:51;;;;;;;21.90;14.53;;;;;;;16.01;34.59;98682.00;7004837;28;20343;-81
2023/03/02 15:19:13;;;;;;;21.13;14.33;;;;;;;16.17;34.62;98694.78;7014669;28;20234;-81
2023/03/02 15:22:35;;;;;;;22.73;13.80;;;;;;;15.70;35.09;98697.94;7015353;28;20253;-80
2023/03/02 15:25:58;;;;;;;19.37;14.37;;;;;;;15.99;35.26;98695.00;7013010;28;20277;-81
2023/03/02 15:29:21;;;;;;;18.03;14.37;;;;;;;15.60;35.83;98692.28;7012994;28;20265;-80
2023/03/02 15:32:43;;;;;;;20.37;14.57;;;;;;;15.99;35.22;98692.25;7012476;28;20209;-80
2023/03/02 15:36:06;;;;;;;18.03;14.00;;;;;;;16.09;34.87;98694.34;7012589;28;20243;-82
2023/03/02 15:39:27;;;;;;;21.03;14.20;;;;;;;15.72;35.21;98691.19;7014889;28;20232;-81
2023/03/02 15:42:49;;;;;;;20.20;14.83;;;;;;;15.56;35.94;98697.38;7015295;28;20312;-80